sensor_id;sensor_type;location;lat;lon;timestamp;temperature;humidity
31038;DHT22;17702;47.590;7.666;2022-09-01T00:02:04;18.00;84.00
31038;DHT22;17702;47.590;7.666;2022-09-01T00:04:37;17.90;84.80
31038;DHT22;17702;47.590;7.666;2022-09-01T00:07:06;18.00;85.00
31038;DHT22;17702;47.590;7.666;2022-09-01T00:09:33;18.00;85.20
31038;DHT22;17702;47.590;7.666;2022-09-01T00:11:58;18.00;85.10
31038;DHT22;17702;47.590;7.666;2022-09-01T00:14:28;17.90;84.80
31038;DHT22;17702;47.590;7.666;2022-09-01T00:16:54;17.90;84.50
31038;DHT22;17702;47.590;7.666;2022-09-01T00:19:22;17.90;84.50
31038;DHT22;17702;47.590;7.666;2022-09-01T00:21:48;17.90;84.30
31038;DHT22;17702;47.590;7.666;2022-09-01T00:24:16;17.80;84.20
31038;DHT22;17702;47.590;7.666;2022-09-01T00:26:42;17.80;84.50
31038;DHT22;17702;47.590;7.666;2022-09-01T00:29:08;17.80;84.90
31038;DHT22;17702;47.590;7.666;2022-09-01T00:31:34;17.80;84.90
31038;DHT22;17702;47.590;7.666;2022-09-01T00:34:00;17.70;85.50
31038;DHT22;17702;47.590;7.666;2022-09-01T00:36:27;17.80;85.30
31038;DHT22;17702;47.590;7.666;2022-09-01T00:38:53;17.70;85.20
31038;DHT22;17702;47.590;7.666;2022-09-01T00:41:21;17.70;85.60
31038;DHT22;17702;47.590;7.666;2022-09-01T00:43:51;17.70;86.00
31038;DHT22;17702;47.590;7.666;2022-09-01T00:46:20;17.70;85.80
31038;DHT22;17702;47.590;7.666;2022-09-01T00:49:00;17.70;85.30
31038;DHT22;17702;47.590;7.666;2022-09-01T00:51:27;17.70;85.30
31038;DHT22;17702;47.590;7.666;2022-09-01T00:53:53;17.70;85.00
31038;DHT22;17702;47.590;7.666;2022-09-01T00:56:20;17.60;84.80
31038;DHT22;17702;47.590;7.666;2022-09-01T00:58:46;17.60;84.60
31038;DHT22;17702;47.590;7.666;2022-09-01T01:01:13;17.50;84.70
31038;DHT22;17702;47.590;7.666;2022-09-01T01:03:39;17.50;85.10
31038;DHT22;17702;47.590;7.666;2022-09-01T01:06:09;17.50;85.10
31038;DHT22;17702;47.590;7.666;2022-09-01T01:08:37;17.50;85.20
31038;DHT22;17702;47.590;7.666;2022-09-01T01:11:10;17.50;85.50
31038;DHT22;17702;47.590;7.666;2022-09-01T01:14:00;17.50;85.70
31038;DHT22;17702;47.590;7.666;2022-09-01T01:16:35;17.40;85.70
31038;DHT22;17702;47.590;7.666;2022-09-01T01:19:01;17.40;84.80
31038;DHT22;17702;47.590;7.666;2022-09-01T01:21:36;17.30;85.50
31038;DHT22;17702;47.590;7.666;2022-09-01T01:26:47;17.30;86.10
31038;DHT22;17702;47.590;7.666;2022-09-01T01:29:13;17.30;86.40
31038;DHT22;17702;47.590;7.666;2022-09-01T01:31:40;17.30;86.40
31038;DHT22;17702;47.590;7.666;2022-09-01T01:34:05;17.30;86.70
31038;DHT22;17702;47.590;7.666;2022-09-01T01:36:34;17.30;86.40
31038;DHT22;17702;47.590;7.666;2022-09-01T01:39:16;17.20;85.20
31038;DHT22;17702;47.590;7.666;2022-09-01T01:41:43;17.20;85.50
31038;DHT22;17702;47.590;7.666;2022-09-01T01:44:15;17.20;85.50
31038;DHT22;17702;47.590;7.666;2022-09-01T01:46:47;17.20;85.70
31038;DHT22;17702;47.590;7.666;2022-09-01T01:49:16;17.20;85.90
31038;DHT22;17702;47.590;7.666;2022-09-01T01:51:44;17.20;86.00
31038;DHT22;17702;47.590;7.666;2022-09-01T01:54:12;17.20;86.20
31038;DHT22;17702;47.590;7.666;2022-09-01T01:56:38;17.20;86.30
31038;DHT22;17702;47.590;7.666;2022-09-01T01:59:07;17.20;87.00
31038;DHT22;17702;47.590;7.666;2022-09-01T02:01:34;17.20;87.30
31038;DHT22;17702;47.590;7.666;2022-09-01T02:04:00;17.20;86.70
31038;DHT22;17702;47.590;7.666;2022-09-01T02:06:32;17.30;86.80
31038;DHT22;17702;47.590;7.666;2022-09-01T02:08:59;17.30;85.30
31038;DHT22;17702;47.590;7.666;2022-09-01T02:11:28;17.20;85.10
31038;DHT22;17702;47.590;7.666;2022-09-01T02:13:55;17.20;85.30
31038;DHT22;17702;47.590;7.666;2022-09-01T02:16:23;17.10;85.70
31038;DHT22;17702;47.590;7.666;2022-09-01T02:18:49;17.10;86.10
31038;DHT22;17702;47.590;7.666;2022-09-01T02:21:18;17.10;86.10
31038;DHT22;17702;47.590;7.666;2022-09-01T02:23:57;17.10;86.30
31038;DHT22;17702;47.590;7.666;2022-09-01T02:26:35;17.10;86.30
31038;DHT22;17702;47.590;7.666;2022-09-01T02:29:06;17.10;86.20
31038;DHT22;17702;47.590;7.666;2022-09-01T02:31:34;17.10;85.60
31038;DHT22;17702;47.590;7.666;2022-09-01T02:34:04;17.00;85.70
31038;DHT22;17702;47.590;7.666;2022-09-01T02:36:31;17.00;85.40
31038;DHT22;17702;47.590;7.666;2022-09-01T02:39:02;16.90;85.90
31038;DHT22;17702;47.590;7.666;2022-09-01T02:41:27;16.90;86.30
31038;DHT22;17702;47.590;7.666;2022-09-01T02:43:56;16.90;86.40
31038;DHT22;17702;47.590;7.666;2022-09-01T02:46:22;16.90;86.60
31038;DHT22;17702;47.590;7.666;2022-09-01T02:48:48;16.90;86.50
31038;DHT22;17702;47.590;7.666;2022-09-01T02:51:18;16.90;86.50
31038;DHT22;17702;47.590;7.666;2022-09-01T02:53:46;16.90;86.60
31038;DHT22;17702;47.590;7.666;2022-09-01T02:56:16;16.90;86.10
31038;DHT22;17702;47.590;7.666;2022-09-01T02:58:43;16.70;86.20
31038;DHT22;17702;47.590;7.666;2022-09-01T03:01:19;16.80;86.50
31038;DHT22;17702;47.590;7.666;2022-09-01T03:03:51;16.80;86.60
31038;DHT22;17702;47.590;7.666;2022-09-01T03:06:18;16.80;86.70
31038;DHT22;17702;47.590;7.666;2022-09-01T03:08:46;16.80;86.90
31038;DHT22;17702;47.590;7.666;2022-09-01T03:11:12;16.80;86.30
31038;DHT22;17702;47.590;7.666;2022-09-01T03:13:39;16.80;86.60
31038;DHT22;17702;47.590;7.666;2022-09-01T03:16:06;16.80;86.70
31038;DHT22;17702;47.590;7.666;2022-09-01T03:18:33;16.80;85.50
31038;DHT22;17702;47.590;7.666;2022-09-01T03:20:59;16.80;85.70
31038;DHT22;17702;47.590;7.666;2022-09-01T03:23:27;16.70;86.40
31038;DHT22;17702;47.590;7.666;2022-09-01T03:25:53;16.70;86.90
31038;DHT22;17702;47.590;7.666;2022-09-01T03:28:19;16.70;87.40
31038;DHT22;17702;47.590;7.666;2022-09-01T03:30:47;16.70;87.50
31038;DHT22;17702;47.590;7.666;2022-09-01T03:33:14;16.70;86.70
31038;DHT22;17702;47.590;7.666;2022-09-01T03:35:42;16.70;86.90
31038;DHT22;17702;47.590;7.666;2022-09-01T03:38:09;16.80;86.50
31038;DHT22;17702;47.590;7.666;2022-09-01T03:40:37;16.70;86.60
31038;DHT22;17702;47.590;7.666;2022-09-01T03:43:06;16.70;86.80
31038;DHT22;17702;47.590;7.666;2022-09-01T03:45:34;16.50;87.40
31038;DHT22;17702;47.590;7.666;2022-09-01T03:48:06;16.50;88.10
31038;DHT22;17702;47.590;7.666;2022-09-01T03:50:36;16.50;87.90
31038;DHT22;17702;47.590;7.666;2022-09-01T03:53:06;16.60;87.80
31038;DHT22;17702;47.590;7.666;2022-09-01T03:55:34;16.60;87.70
31038;DHT22;17702;47.590;7.666;2022-09-01T03:58:05;16.70;87.60
31038;DHT22;17702;47.590;7.666;2022-09-01T04:00:40;16.70;87.40
31038;DHT22;17702;47.590;7.666;2022-09-01T04:03:08;16.70;87.30
31038;DHT22;17702;47.590;7.666;2022-09-01T04:05:35;16.70;86.80
31038;DHT22;17702;47.590;7.666;2022-09-01T04:08:05;16.70;86.60
31038;DHT22;17702;47.590;7.666;2022-09-01T04:10:33;16.60;86.70
31038;DHT22;17702;47.590;7.666;2022-09-01T04:12:59;16.60;86.90
31038;DHT22;17702;47.590;7.666;2022-09-01T04:15:27;16.60;86.80
31038;DHT22;17702;47.590;7.666;2022-09-01T04:17:53;16.50;87.00
31038;DHT22;17702;47.590;7.666;2022-09-01T04:20:43;16.50;86.90
31038;DHT22;17702;47.590;7.666;2022-09-01T04:23:24;16.50;86.60
31038;DHT22;17702;47.590;7.666;2022-09-01T04:25:52;16.40;86.10
31038;DHT22;17702;47.590;7.666;2022-09-01T04:28:20;16.30;85.70
31038;DHT22;17702;47.590;7.666;2022-09-01T04:30:55;16.20;86.10
31038;DHT22;17702;47.590;7.666;2022-09-01T04:33:26;16.20;86.20
31038;DHT22;17702;47.590;7.666;2022-09-01T04:35:53;16.20;86.30
31038;DHT22;17702;47.590;7.666;2022-09-01T04:38:22;16.20;86.30
31038;DHT22;17702;47.590;7.666;2022-09-01T04:40:49;16.20;86.40
31038;DHT22;17702;47.590;7.666;2022-09-01T04:43:15;16.20;87.40
31038;DHT22;17702;47.590;7.666;2022-09-01T04:45:41;16.20;87.20
31038;DHT22;17702;47.590;7.666;2022-09-01T04:48:07;16.20;87.00
31038;DHT22;17702;47.590;7.666;2022-09-01T04:50:34;16.20;87.20
31038;DHT22;17702;47.590;7.666;2022-09-01T04:53:01;16.30;87.10
31038;DHT22;17702;47.590;7.666;2022-09-01T04:55:28;16.20;86.90
31038;DHT22;17702;47.590;7.666;2022-09-01T04:57:56;16.20;86.00
31038;DHT22;17702;47.590;7.666;2022-09-01T05:00:24;16.20;86.20
31038;DHT22;17702;47.590;7.666;2022-09-01T05:02:53;16.20;86.40
31038;DHT22;17702;47.590;7.666;2022-09-01T05:05:21;16.10;86.50
31038;DHT22;17702;47.590;7.666;2022-09-01T05:07:48;16.10;87.30
31038;DHT22;17702;47.590;7.666;2022-09-01T05:10:20;16.10;88.50
31038;DHT22;17702;47.590;7.666;2022-09-01T05:12:47;16.10;90.50
31038;DHT22;17702;47.590;7.666;2022-09-01T05:15:14;16.20;90.60
31038;DHT22;17702;47.590;7.666;2022-09-01T05:17:41;16.30;90.80
31038;DHT22;17702;47.590;7.666;2022-09-01T05:20:09;16.40;90.60
31038;DHT22;17702;47.590;7.666;2022-09-01T05:25:16;16.50;90.50
31038;DHT22;17702;47.590;7.666;2022-09-01T05:27:44;16.50;90.50
31038;DHT22;17702;47.590;7.666;2022-09-01T05:30:15;16.50;90.40
31038;DHT22;17702;47.590;7.666;2022-09-01T05:32:43;16.50;90.50
31038;DHT22;17702;47.590;7.666;2022-09-01T05:35:09;16.60;90.50
31038;DHT22;17702;47.590;7.666;2022-09-01T05:37:36;16.70;90.10
31038;DHT22;17702;47.590;7.666;2022-09-01T05:40:07;16.70;89.50
31038;DHT22;17702;47.590;7.666;2022-09-01T05:42:42;16.70;89.30
31038;DHT22;17702;47.590;7.666;2022-09-01T05:45:07;16.70;88.80
31038;DHT22;17702;47.590;7.666;2022-09-01T05:47:35;16.60;89.10
31038;DHT22;17702;47.590;7.666;2022-09-01T05:50:02;16.60;89.70
31038;DHT22;17702;47.590;7.666;2022-09-01T05:52:30;16.60;89.70
31038;DHT22;17702;47.590;7.666;2022-09-01T05:54:58;16.60;89.30
31038;DHT22;17702;47.590;7.666;2022-09-01T05:57:25;16.60;89.70
31038;DHT22;17702;47.590;7.666;2022-09-01T05:59:50;16.70;89.90
31038;DHT22;17702;47.590;7.666;2022-09-01T06:02:20;16.80;89.50
31038;DHT22;17702;47.590;7.666;2022-09-01T06:04:46;16.90;89.70
31038;DHT22;17702;47.590;7.666;2022-09-01T06:07:15;16.90;88.90
31038;DHT22;17702;47.590;7.666;2022-09-01T06:09:47;16.90;88.80
31038;DHT22;17702;47.590;7.666;2022-09-01T06:12:14;17.00;87.50
31038;DHT22;17702;47.590;7.666;2022-09-01T06:14:48;17.00;88.10
31038;DHT22;17702;47.590;7.666;2022-09-01T06:17:16;17.00;88.20
31038;DHT22;17702;47.590;7.666;2022-09-01T06:19:43;17.10;88.20
31038;DHT22;17702;47.590;7.666;2022-09-01T06:22:10;17.20;88.20
31038;DHT22;17702;47.590;7.666;2022-09-01T06:24:36;17.20;88.30
31038;DHT22;17702;47.590;7.666;2022-09-01T06:27:05;17.20;88.50
31038;DHT22;17702;47.590;7.666;2022-09-01T06:29:37;17.30;88.10
31038;DHT22;17702;47.590;7.666;2022-09-01T06:32:06;17.30;88.00
31038;DHT22;17702;47.590;7.666;2022-09-01T06:34:41;17.40;88.30
31038;DHT22;17702;47.590;7.666;2022-09-01T06:37:10;17.50;88.20
31038;DHT22;17702;47.590;7.666;2022-09-01T06:39:37;17.50;88.00
31038;DHT22;17702;47.590;7.666;2022-09-01T06:42:03;17.60;88.50
31038;DHT22;17702;47.590;7.666;2022-09-01T06:44:29;17.60;88.00
31038;DHT22;17702;47.590;7.666;2022-09-01T06:46:57;17.60;86.60
31038;DHT22;17702;47.590;7.666;2022-09-01T06:49:24;17.70;87.50
31038;DHT22;17702;47.590;7.666;2022-09-01T06:52:00;17.70;87.20
31038;DHT22;17702;47.590;7.666;2022-09-01T06:54:27;17.90;86.90
31038;DHT22;17702;47.590;7.666;2022-09-01T06:56:59;18.00;84.60
31038;DHT22;17702;47.590;7.666;2022-09-01T06:59:28;18.10;84.90
31038;DHT22;17702;47.590;7.666;2022-09-01T07:01:58;18.30;86.10
31038;DHT22;17702;47.590;7.666;2022-09-01T07:04:27;18.40;85.20
31038;DHT22;17702;47.590;7.666;2022-09-01T07:06:54;18.60;83.30
31038;DHT22;17702;47.590;7.666;2022-09-01T07:09:20;18.80;82.60
31038;DHT22;17702;47.590;7.666;2022-09-01T07:11:46;18.90;81.50
31038;DHT22;17702;47.590;7.666;2022-09-01T07:14:11;19.10;79.80
31038;DHT22;17702;47.590;7.666;2022-09-01T07:16:40;19.20;80.10
31038;DHT22;17702;47.590;7.666;2022-09-01T07:19:07;19.40;80.10
31038;DHT22;17702;47.590;7.666;2022-09-01T07:21:42;19.50;78.90
31038;DHT22;17702;47.590;7.666;2022-09-01T07:24:09;19.70;78.00
31038;DHT22;17702;47.590;7.666;2022-09-01T07:26:35;19.90;77.30
31038;DHT22;17702;47.590;7.666;2022-09-01T07:29:03;20.00;76.90
31038;DHT22;17702;47.590;7.666;2022-09-01T07:31:35;20.10;76.70
31038;DHT22;17702;47.590;7.666;2022-09-01T07:34:05;20.30;75.60
31038;DHT22;17702;47.590;7.666;2022-09-01T07:36:31;20.40;77.00
31038;DHT22;17702;47.590;7.666;2022-09-01T07:38:58;20.50;75.20
31038;DHT22;17702;47.590;7.666;2022-09-01T07:41:26;20.50;74.20
31038;DHT22;17702;47.590;7.666;2022-09-01T07:43:52;20.60;73.60
31038;DHT22;17702;47.590;7.666;2022-09-01T07:46:20;20.60;74.10
31038;DHT22;17702;47.590;7.666;2022-09-01T07:48:47;20.70;73.40
31038;DHT22;17702;47.590;7.666;2022-09-01T07:51:16;20.80;74.10
31038;DHT22;17702;47.590;7.666;2022-09-01T07:53:45;20.90;72.30
31038;DHT22;17702;47.590;7.666;2022-09-01T07:56:13;20.90;72.20
31038;DHT22;17702;47.590;7.666;2022-09-01T07:58:40;21.00;71.80
31038;DHT22;17702;47.590;7.666;2022-09-01T08:01:11;21.10;71.50
31038;DHT22;17702;47.590;7.666;2022-09-01T08:03:38;21.30;72.30
31038;DHT22;17702;47.590;7.666;2022-09-01T08:06:07;21.30;71.20
31038;DHT22;17702;47.590;7.666;2022-09-01T08:08:33;21.40;72.30
31038;DHT22;17702;47.590;7.666;2022-09-01T08:11:00;21.50;71.10
31038;DHT22;17702;47.590;7.666;2022-09-01T08:13:26;21.50;69.90
31038;DHT22;17702;47.590;7.666;2022-09-01T08:15:52;21.60;70.90
31038;DHT22;17702;47.590;7.666;2022-09-01T08:18:18;21.70;71.40
31038;DHT22;17702;47.590;7.666;2022-09-01T08:20:44;21.90;70.30
31038;DHT22;17702;47.590;7.666;2022-09-01T08:23:14;22.00;69.60
31038;DHT22;17702;47.590;7.666;2022-09-01T08:28:13;22.30;67.60
31038;DHT22;17702;47.590;7.666;2022-09-01T08:30:41;22.30;68.90
31038;DHT22;17702;47.590;7.666;2022-09-01T08:33:07;22.30;68.30
31038;DHT22;17702;47.590;7.666;2022-09-01T08:35:38;22.50;67.70
31038;DHT22;17702;47.590;7.666;2022-09-01T08:38:04;22.80;67.70
31038;DHT22;17702;47.590;7.666;2022-09-01T08:40:30;22.90;68.10
31038;DHT22;17702;47.590;7.666;2022-09-01T08:45:32;23.20;65.40
31038;DHT22;17702;47.590;7.666;2022-09-01T08:48:06;23.30;64.90
31038;DHT22;17702;47.590;7.666;2022-09-01T08:50:33;23.40;64.00
31038;DHT22;17702;47.590;7.666;2022-09-01T08:53:11;23.40;65.10
31038;DHT22;17702;47.590;7.666;2022-09-01T08:55:43;23.60;63.80
31038;DHT22;17702;47.590;7.666;2022-09-01T08:58:11;23.70;65.40
31038;DHT22;17702;47.590;7.666;2022-09-01T09:00:42;23.70;65.40
31038;DHT22;17702;47.590;7.666;2022-09-01T09:03:25;23.60;63.90
31038;DHT22;17702;47.590;7.666;2022-09-01T09:14:14;23.90;63.10
31038;DHT22;17702;47.590;7.666;2022-09-01T09:16:49;24.00;63.60
31038;DHT22;17702;47.590;7.666;2022-09-01T09:21:56;24.30;61.80
31038;DHT22;17702;47.590;7.666;2022-09-01T09:27:29;24.40;61.30
31038;DHT22;17702;47.590;7.666;2022-09-01T09:29:56;24.30;60.20
31038;DHT22;17702;47.590;7.666;2022-09-01T09:32:25;24.30;59.50
31038;DHT22;17702;47.590;7.666;2022-09-01T09:43:31;24.10;61.50
31038;DHT22;17702;47.590;7.666;2022-09-01T09:51:43;24.60;60.90
31038;DHT22;17702;47.590;7.666;2022-09-01T09:54:12;24.80;59.60
31038;DHT22;17702;47.590;7.666;2022-09-01T09:56:39;25.10;60.50
31038;DHT22;17702;47.590;7.666;2022-09-01T09:59:18;25.40;59.40
31038;DHT22;17702;47.590;7.666;2022-09-01T10:01:46;25.50;57.20
31038;DHT22;17702;47.590;7.666;2022-09-01T10:04:33;25.70;58.40
31038;DHT22;17702;47.590;7.666;2022-09-01T10:07:00;25.70;56.90
31038;DHT22;17702;47.590;7.666;2022-09-01T10:11:53;25.70;57.50
31038;DHT22;17702;47.590;7.666;2022-09-01T10:14:24;25.80;57.90
31038;DHT22;17702;47.590;7.666;2022-09-01T10:16:57;26.00;58.30
31038;DHT22;17702;47.590;7.666;2022-09-01T10:19:25;26.00;57.00
31038;DHT22;17702;47.590;7.666;2022-09-01T10:21:53;26.10;55.70
31038;DHT22;17702;47.590;7.666;2022-09-01T10:24:24;26.20;55.60
31038;DHT22;17702;47.590;7.666;2022-09-01T10:26:55;26.20;55.00
31038;DHT22;17702;47.590;7.666;2022-09-01T10:29:30;26.10;55.90
31038;DHT22;17702;47.590;7.666;2022-09-01T10:31:58;26.10;55.00
31038;DHT22;17702;47.590;7.666;2022-09-01T10:34:35;26.20;55.50
31038;DHT22;17702;47.590;7.666;2022-09-01T10:37:03;26.10;54.80
31038;DHT22;17702;47.590;7.666;2022-09-01T10:39:30;26.20;56.60
31038;DHT22;17702;47.590;7.666;2022-09-01T10:41:57;26.20;56.40
31038;DHT22;17702;47.590;7.666;2022-09-01T10:44:30;26.20;55.70
31038;DHT22;17702;47.590;7.666;2022-09-01T10:47:25;26.20;55.80
31038;DHT22;17702;47.590;7.666;2022-09-01T11:16:40;26.40;54.80
31038;DHT22;17702;47.590;7.666;2022-09-01T11:30:52;26.10;54.00
31038;DHT22;17702;47.590;7.666;2022-09-01T11:36:26;26.00;53.60
31038;DHT22;17702;47.590;7.666;2022-09-01T11:44:29;25.70;55.30
31038;DHT22;17702;47.590;7.666;2022-09-01T11:47:03;25.70;54.80
31038;DHT22;17702;47.590;7.666;2022-09-01T11:49:32;25.60;55.20
31038;DHT22;17702;47.590;7.666;2022-09-01T11:51:59;25.70;56.00
31038;DHT22;17702;47.590;7.666;2022-09-01T11:54:28;25.70;54.90
31038;DHT22;17702;47.590;7.666;2022-09-01T11:56:54;25.70;54.90
31038;DHT22;17702;47.590;7.666;2022-09-01T11:59:35;25.80;54.60
31038;DHT22;17702;47.590;7.666;2022-09-01T12:02:01;25.80;54.00
31038;DHT22;17702;47.590;7.666;2022-09-01T12:04:33;25.80;53.90
31038;DHT22;17702;47.590;7.666;2022-09-01T12:07:11;25.90;53.90
31038;DHT22;17702;47.590;7.666;2022-09-01T12:09:44;26.00;53.50
31038;DHT22;17702;47.590;7.666;2022-09-01T12:12:31;26.10;55.00
31038;DHT22;17702;47.590;7.666;2022-09-01T12:15:03;26.10;54.30
31038;DHT22;17702;47.590;7.666;2022-09-01T12:17:30;26.20;53.40
31038;DHT22;17702;47.590;7.666;2022-09-01T12:19:55;26.30;52.30
31038;DHT22;17702;47.590;7.666;2022-09-01T12:22:41;26.40;51.70
31038;DHT22;17702;47.590;7.666;2022-09-01T12:25:21;26.50;52.20
31038;DHT22;17702;47.590;7.666;2022-09-01T12:27:48;26.60;52.40
31038;DHT22;17702;47.590;7.666;2022-09-01T12:30:14;26.60;51.40
31038;DHT22;17702;47.590;7.666;2022-09-01T12:32:40;26.70;51.70
31038;DHT22;17702;47.590;7.666;2022-09-01T12:35:18;26.90;52.30
31038;DHT22;17702;47.590;7.666;2022-09-01T12:37:44;26.90;51.20
31038;DHT22;17702;47.590;7.666;2022-09-01T12:40:30;26.80;50.70
31038;DHT22;17702;47.590;7.666;2022-09-01T12:42:56;26.80;50.10
31038;DHT22;17702;47.590;7.666;2022-09-01T12:45:42;26.60;50.10
31038;DHT22;17702;47.590;7.666;2022-09-01T12:48:29;26.60;51.20
31038;DHT22;17702;47.590;7.666;2022-09-01T12:51:22;26.80;54.20
31038;DHT22;17702;47.590;7.666;2022-09-01T12:54:06;27.00;49.60
31038;DHT22;17702;47.590;7.666;2022-09-01T12:56:35;27.00;48.90
31038;DHT22;17702;47.590;7.666;2022-09-01T12:59:25;27.00;50.30
31038;DHT22;17702;47.590;7.666;2022-09-01T13:01:51;27.10;51.00
31038;DHT22;17702;47.590;7.666;2022-09-01T13:06:45;27.20;49.50
31038;DHT22;17702;47.590;7.666;2022-09-01T13:09:11;27.20;51.00
31038;DHT22;17702;47.590;7.666;2022-09-01T13:11:37;27.30;50.20
31038;DHT22;17702;47.590;7.666;2022-09-01T13:14:03;27.40;50.40
31038;DHT22;17702;47.590;7.666;2022-09-01T13:16:29;27.50;47.20
31038;DHT22;17702;47.590;7.666;2022-09-01T13:18:54;27.40;47.40
31038;DHT22;17702;47.590;7.666;2022-09-01T13:21:20;27.40;47.50
31038;DHT22;17702;47.590;7.666;2022-09-01T13:23:46;27.30;49.80
31038;DHT22;17702;47.590;7.666;2022-09-01T13:26:12;27.40;49.60
31038;DHT22;17702;47.590;7.666;2022-09-01T13:28:37;27.40;50.00
31038;DHT22;17702;47.590;7.666;2022-09-01T13:31:04;27.40;50.20
31038;DHT22;17702;47.590;7.666;2022-09-01T13:33:31;27.40;50.40
31038;DHT22;17702;47.590;7.666;2022-09-01T13:35:57;27.40;48.40
31038;DHT22;17702;47.590;7.666;2022-09-01T13:38:22;27.30;47.80
31038;DHT22;17702;47.590;7.666;2022-09-01T13:40:49;27.30;47.60
31038;DHT22;17702;47.590;7.666;2022-09-01T13:43:18;27.20;48.00
31038;DHT22;17702;47.590;7.666;2022-09-01T13:45:44;27.20;48.70
31038;DHT22;17702;47.590;7.666;2022-09-01T13:48:09;27.30;50.80
31038;DHT22;17702;47.590;7.666;2022-09-01T13:50:36;27.30;49.70
31038;DHT22;17702;47.590;7.666;2022-09-01T13:53:03;27.50;52.30
31038;DHT22;17702;47.590;7.666;2022-09-01T13:55:31;27.50;47.50
31038;DHT22;17702;47.590;7.666;2022-09-01T13:57:58;27.40;48.30
31038;DHT22;17702;47.590;7.666;2022-09-01T14:00:29;27.40;49.40
31038;DHT22;17702;47.590;7.666;2022-09-01T14:03:01;27.40;49.20
31038;DHT22;17702;47.590;7.666;2022-09-01T14:05:31;27.50;51.00
31038;DHT22;17702;47.590;7.666;2022-09-01T14:07:58;27.50;48.00
31038;DHT22;17702;47.590;7.666;2022-09-01T14:10:25;27.50;48.80
31038;DHT22;17702;47.590;7.666;2022-09-01T14:12:51;27.50;48.60
31038;DHT22;17702;47.590;7.666;2022-09-01T14:15:18;27.50;48.50
31038;DHT22;17702;47.590;7.666;2022-09-01T14:17:46;27.50;49.10
31038;DHT22;17702;47.590;7.666;2022-09-01T14:20:18;27.50;48.50
31038;DHT22;17702;47.590;7.666;2022-09-01T14:22:45;27.40;48.70
31038;DHT22;17702;47.590;7.666;2022-09-01T14:25:12;27.40;48.20
31038;DHT22;17702;47.590;7.666;2022-09-01T14:27:38;27.30;49.20
31038;DHT22;17702;47.590;7.666;2022-09-01T14:30:06;27.20;47.80
31038;DHT22;17702;47.590;7.666;2022-09-01T14:32:33;27.00;49.40
31038;DHT22;17702;47.590;7.666;2022-09-01T14:34:59;27.00;48.60
31038;DHT22;17702;47.590;7.666;2022-09-01T14:37:25;26.90;49.00
31038;DHT22;17702;47.590;7.666;2022-09-01T14:39:52;26.80;49.20
31038;DHT22;17702;47.590;7.666;2022-09-01T14:42:18;26.80;48.70
31038;DHT22;17702;47.590;7.666;2022-09-01T14:44:45;26.80;50.00
31038;DHT22;17702;47.590;7.666;2022-09-01T14:47:12;26.70;48.80
31038;DHT22;17702;47.590;7.666;2022-09-01T14:49:38;26.70;48.80
31038;DHT22;17702;47.590;7.666;2022-09-01T14:52:04;26.70;50.40
31038;DHT22;17702;47.590;7.666;2022-09-01T14:54:35;26.70;49.10
31038;DHT22;17702;47.590;7.666;2022-09-01T14:57:02;26.60;48.60
31038;DHT22;17702;47.590;7.666;2022-09-01T14:59:27;26.50;49.30
31038;DHT22;17702;47.590;7.666;2022-09-01T15:01:53;26.40;49.60
31038;DHT22;17702;47.590;7.666;2022-09-01T15:04:19;26.40;49.60
31038;DHT22;17702;47.590;7.666;2022-09-01T15:06:45;26.40;49.00
31038;DHT22;17702;47.590;7.666;2022-09-01T15:09:10;26.20;49.00
31038;DHT22;17702;47.590;7.666;2022-09-01T15:11:36;26.20;49.50
31038;DHT22;17702;47.590;7.666;2022-09-01T15:14:02;26.20;49.50
31038;DHT22;17702;47.590;7.666;2022-09-01T15:16:28;26.10;50.10
31038;DHT22;17702;47.590;7.666;2022-09-01T15:18:54;26.00;50.00
31038;DHT22;17702;47.590;7.666;2022-09-01T15:21:29;26.00;49.70
31038;DHT22;17702;47.590;7.666;2022-09-01T15:23:57;26.00;49.50
31038;DHT22;17702;47.590;7.666;2022-09-01T15:26:23;26.00;49.90
31038;DHT22;17702;47.590;7.666;2022-09-01T15:28:50;25.90;49.40
31038;DHT22;17702;47.590;7.666;2022-09-01T15:31:17;25.80;49.60
31038;DHT22;17702;47.590;7.666;2022-09-01T15:33:44;25.70;49.50
31038;DHT22;17702;47.590;7.666;2022-09-01T15:36:16;25.70;50.00
31038;DHT22;17702;47.590;7.666;2022-09-01T15:38:42;25.70;49.60
31038;DHT22;17702;47.590;7.666;2022-09-01T15:41:08;25.70;50.10
31038;DHT22;17702;47.590;7.666;2022-09-01T15:43:34;25.70;50.70
31038;DHT22;17702;47.590;7.666;2022-09-01T15:46:03;25.60;49.70
31038;DHT22;17702;47.590;7.666;2022-09-01T15:48:28;25.60;50.60
31038;DHT22;17702;47.590;7.666;2022-09-01T15:53:53;25.40;50.40
31038;DHT22;17702;47.590;7.666;2022-09-01T15:56:19;25.30;50.40
31038;DHT22;17702;47.590;7.666;2022-09-01T15:58:46;25.20;51.20
31038;DHT22;17702;47.590;7.666;2022-09-01T16:01:12;25.10;50.80
31038;DHT22;17702;47.590;7.666;2022-09-01T16:03:38;24.90;50.40
31038;DHT22;17702;47.590;7.666;2022-09-01T16:06:04;24.90;52.00
31038;DHT22;17702;47.590;7.666;2022-09-01T16:08:30;24.90;51.80
31038;DHT22;17702;47.590;7.666;2022-09-01T16:10:56;24.80;51.60
31038;DHT22;17702;47.590;7.666;2022-09-01T16:13:22;24.70;51.40
31038;DHT22;17702;47.590;7.666;2022-09-01T16:15:53;24.60;52.50
31038;DHT22;17702;47.590;7.666;2022-09-01T16:18:36;24.50;52.30
31038;DHT22;17702;47.590;7.666;2022-09-01T16:23:52;24.50;52.80
31038;DHT22;17702;47.590;7.666;2022-09-01T16:26:19;24.40;52.60
31038;DHT22;17702;47.590;7.666;2022-09-01T16:28:55;24.30;53.00
31038;DHT22;17702;47.590;7.666;2022-09-01T16:31:25;24.40;53.30
31038;DHT22;17702;47.590;7.666;2022-09-01T16:33:53;24.30;53.20
31038;DHT22;17702;47.590;7.666;2022-09-01T16:36:40;24.30;54.30
31038;DHT22;17702;47.590;7.666;2022-09-01T16:39:20;24.30;54.50
31038;DHT22;17702;47.590;7.666;2022-09-01T16:45:10;24.20;55.00
31038;DHT22;17702;47.590;7.666;2022-09-01T16:50:32;24.20;53.80
31038;DHT22;17702;47.590;7.666;2022-09-01T16:56:09;24.10;53.70
31038;DHT22;17702;47.590;7.666;2022-09-01T16:58:54;24.10;53.10
31038;DHT22;17702;47.590;7.666;2022-09-01T17:07:06;24.00;53.70
31038;DHT22;17702;47.590;7.666;2022-09-01T17:09:44;23.90;54.20
31038;DHT22;17702;47.590;7.666;2022-09-01T17:12:52;23.90;54.40
31038;DHT22;17702;47.590;7.666;2022-09-01T17:15:34;23.80;54.80
31038;DHT22;17702;47.590;7.666;2022-09-01T17:18:14;23.70;54.50
31038;DHT22;17702;47.590;7.666;2022-09-01T17:20:44;23.60;55.10
31038;DHT22;17702;47.590;7.666;2022-09-01T17:23:16;23.60;54.30
31038;DHT22;17702;47.590;7.666;2022-09-01T17:26:10;23.60;56.00
31038;DHT22;17702;47.590;7.666;2022-09-01T17:28:44;23.50;55.80
31038;DHT22;17702;47.590;7.666;2022-09-01T17:31:17;23.50;54.70
31038;DHT22;17702;47.590;7.666;2022-09-01T17:33:56;23.40;55.10
31038;DHT22;17702;47.590;7.666;2022-09-01T17:36:55;23.40;55.70